createdAt,value
2023-04-10T00:03:37.224Z,339.90
2023-04-10T00:08:39.022Z,138.02
2023-04-10T00:13:40.656Z,153.98
2023-04-10T00:18:42.115Z,133.43
2023-04-10T00:23:43.559Z,158.73
2023-04-10T00:28:45.016Z,132.45
2023-04-10T00:33:46.457Z,119.63
2023-04-10T00:38:47.906Z,134.15
2023-04-10T00:43:49.346Z,180.45
2023-04-10T00:48:50.803Z,158.18
2023-04-10T00:53:52.603Z,198.63
2023-04-10T00:58:54.376Z,98.93
2023-04-10T01:03:56.050Z,229.70
2023-04-10T01:08:57.723Z,398.90
2023-04-10T01:13:59.153Z,453.42
2023-04-10T01:19:00.595Z,760.33
2023-04-10T01:24:02.017Z,465.17
2023-04-10T01:29:03.459Z,464.70
2023-04-10T01:34:04.936Z,445.90
2023-04-10T01:39:06.467Z,197.07
2023-04-10T01:44:07.933Z,638.85
2023-04-10T01:49:09.397Z,128.75
2023-04-10T01:54:10.833Z,643.50
2023-04-10T01:59:12.300Z,380.48
2023-04-10T02:04:13.808Z,112.80
2023-04-10T02:09:15.358Z,219.35
2023-04-10T02:14:16.820Z,437.50
2023-04-10T02:19:18.252Z,782.22
2023-04-10T02:24:19.700Z,835.03
2023-04-10T02:29:21.156Z,564.58
2023-04-10T02:34:22.620Z,783.55
2023-04-10T02:39:24.085Z,738.00
2023-04-10T02:44:25.531Z,315.50
2023-04-10T02:49:26.975Z,248.95
2023-04-10T02:54:28.425Z,191.82
2023-04-10T02:59:29.883Z,261.55
2023-04-10T03:04:31.397Z,394.73
2023-04-10T03:09:32.842Z,432.02
2023-04-10T03:14:34.380Z,237.65
2023-04-10T03:19:35.842Z,276.38
2023-04-10T03:24:37.277Z,273.00
2023-04-10T03:29:38.716Z,529.17
2023-04-10T03:34:40.167Z,367.25
2023-04-10T03:39:41.600Z,301.02
2023-04-10T03:44:43.067Z,127.57
2023-04-10T03:49:44.501Z,359.17
2023-04-10T03:54:45.930Z,308.98
2023-04-10T03:59:47.377Z,530.25
2023-04-10T04:04:48.928Z,521.60
2023-04-10T04:09:50.500Z,234.23
2023-04-10T04:14:51.940Z,485.85
2023-04-10T04:19:53.365Z,369.63
2023-04-10T04:24:54.825Z,212.52
2023-04-10T04:29:56.296Z,386.92
2023-04-10T04:34:57.829Z,326.83
2023-04-10T04:39:59.278Z,270.75
2023-04-10T04:45:00.740Z,344.85
2023-04-10T04:50:02.209Z,518.80
2023-04-10T04:55:03.628Z,517.67
2023-04-10T05:00:05.063Z,438.33
2023-04-10T05:05:06.502Z,364.98
2023-04-10T05:10:07.940Z,451.52
2023-04-10T05:15:09.373Z,395.02
2023-04-10T05:20:10.835Z,234.20
2023-04-10T05:25:12.302Z,216.63
2023-04-10T05:30:13.744Z,510.35
2023-04-10T05:35:15.218Z,554.40
2023-04-10T05:40:16.647Z,432.02
2023-04-10T05:45:18.095Z,237.27
2023-04-10T05:50:19.841Z,538.92
2023-04-10T05:55:22.082Z,493.27
2023-04-10T06:00:23.559Z,640.90
2023-04-10T06:05:25.164Z,578.42
2023-04-10T06:10:26.634Z,400.52
2023-04-10T06:15:28.061Z,307.00
2023-04-10T06:20:29.491Z,483.63
2023-04-10T06:25:30.956Z,953.50
2023-04-10T06:30:32.412Z,449.23
2023-04-10T06:35:34.004Z,735.95
2023-04-10T06:40:35.524Z,396.90
2023-04-10T06:45:36.992Z,438.63
2023-04-10T06:50:38.416Z,258.70
2023-04-10T06:55:40.020Z,304.85
2023-04-10T07:00:41.467Z,231.55
2023-04-10T07:05:42.967Z,163.32
2023-04-10T07:10:44.393Z,196.93
2023-04-10T07:15:45.846Z,186.38
2023-04-10T07:20:47.305Z,151.75
2023-04-10T07:25:48.728Z,167.80
2023-04-10T07:30:50.147Z,151.40
2023-04-10T07:35:51.617Z,127.88
2023-04-10T07:40:53.063Z,115.68
2023-04-10T07:45:54.509Z,117.03
2023-04-10T07:50:55.967Z,116.43
2023-04-10T07:55:57.441Z,90.85
2023-04-10T08:00:58.874Z,106.57
2023-04-10T08:06:00.313Z,100.40
2023-04-10T08:11:01.764Z,96.32
2023-04-10T08:16:03.206Z,94.60
2023-04-10T08:21:04.640Z,93.43
2023-04-10T08:26:06.105Z,97.22
2023-04-10T08:31:07.614Z,89.97
2023-04-10T08:36:09.097Z,84.75
2023-04-10T08:41:10.541Z,84.00
2023-04-10T08:46:12.022Z,81.95
2023-04-10T08:51:19.501Z,87.13
2023-04-10T08:56:21.663Z,67.38
2023-04-10T09:01:23.121Z,80.68
2023-04-10T09:06:24.575Z,68.53
2023-04-10T09:11:26.016Z,75.60
2023-04-10T09:16:27.602Z,62.17
2023-04-10T09:21:29.119Z,63.50
2023-04-10T09:26:30.624Z,64.95
2023-04-10T09:31:32.203Z,63.92
2023-04-10T09:36:33.713Z,52.00
2023-04-10T09:41:35.172Z,59.63
2023-04-10T09:46:36.663Z,60.80
2023-04-10T09:51:38.110Z,56.08
2023-04-10T09:56:39.581Z,55.40
2023-04-10T10:01:41.126Z,52.20
2023-04-10T10:06:42.666Z,52.22
2023-04-10T10:11:44.104Z,45.70
2023-04-10T10:16:45.706Z,42.42
2023-04-10T10:21:47.244Z,40.00
2023-04-10T10:26:48.672Z,46.58
2023-04-10T10:31:50.166Z,44.53
2023-04-10T10:36:51.636Z,45.70
2023-04-10T10:41:53.097Z,44.75
2023-04-10T10:46:54.535Z,47.38
2023-04-10T10:51:55.990Z,39.88
2023-04-10T10:56:57.441Z,42.28
2023-04-10T11:01:58.992Z,39.13
2023-04-10T11:07:00.546Z,35.47
2023-04-10T11:12:02.038Z,39.03
2023-04-10T11:17:03.733Z,35.80
2023-04-10T11:22:08.085Z,37.88
2023-04-10T11:27:09.757Z,38.13
2023-04-10T11:32:11.302Z,39.38
2023-04-10T11:37:12.860Z,35.78
2023-04-10T11:42:14.334Z,36.25
2023-04-10T11:47:17.706Z,38.10
2023-04-10T11:52:19.140Z,35.17
2023-04-10T11:57:22.725Z,35.78
2023-04-10T12:02:24.258Z,36.95
2023-04-10T12:07:25.868Z,35.50
2023-04-10T12:12:27.296Z,34.88
2023-04-10T12:17:29.991Z,33.70
2023-04-10T12:22:31.503Z,39.75
2023-04-10T12:27:33.008Z,35.40
2023-04-10T12:32:34.454Z,37.92
2023-04-10T12:37:35.944Z,37.42
2023-04-10T12:42:37.407Z,36.40
2023-04-10T12:47:38.901Z,39.88
2023-04-10T12:52:40.402Z,38.45
2023-04-10T12:57:41.883Z,42.08
2023-04-10T13:02:43.489Z,36.67
2023-04-10T13:07:45.105Z,40.28
2023-04-10T13:12:46.549Z,33.85
2023-04-10T13:17:48.003Z,37.10
2023-04-10T13:22:49.512Z,35.20
2023-04-10T13:27:50.936Z,36.35
2023-04-10T13:32:52.422Z,31.38
2023-04-10T13:37:53.889Z,28.38
2023-04-10T13:42:55.332Z,27.38
2023-04-10T13:47:56.852Z,27.23
2023-04-10T13:52:58.375Z,25.63
2023-04-10T13:57:59.844Z,21.13
2023-04-10T14:03:01.471Z,20.52
2023-04-10T14:08:02.999Z,18.73
2023-04-10T14:13:04.425Z,27.42
2023-04-10T14:18:05.908Z,25.60
2023-04-10T14:23:07.391Z,24.42
2023-04-10T14:28:08.814Z,22.63
2023-04-10T14:33:10.292Z,25.60
2023-04-10T14:38:11.771Z,24.35
2023-04-10T14:43:13.200Z,24.65
2023-04-10T14:48:14.826Z,22.42
2023-04-10T14:53:16.410Z,24.80
2023-04-10T14:58:17.868Z,24.45
2023-04-10T15:03:19.400Z,29.65
2023-04-10T15:08:20.888Z,22.23
2023-04-10T15:13:22.346Z,20.15
2023-04-10T15:18:23.776Z,22.48
2023-04-10T15:23:25.216Z,20.55
2023-04-10T15:28:26.642Z,25.80
2023-04-10T15:33:28.114Z,22.65
2023-04-10T15:38:29.548Z,23.27
2023-04-10T15:43:30.996Z,18.67
2023-04-10T15:48:32.425Z,17.70
2023-04-10T15:53:33.857Z,20.92
2023-04-10T15:58:35.295Z,15.07
2023-04-10T16:03:36.907Z,16.48
2023-04-10T16:08:38.416Z,19.30
2023-04-10T16:13:42.241Z,16.67
2023-04-10T16:18:45.146Z,18.38
2023-04-10T16:23:46.606Z,18.17
2023-04-10T16:28:48.026Z,17.08
2023-04-10T16:33:49.460Z,20.20
2023-04-10T16:38:50.889Z,19.17
2023-04-10T16:43:52.389Z,18.27
2023-04-10T16:48:54.097Z,20.05
2023-04-10T16:53:55.850Z,21.10
2023-04-10T16:58:57.591Z,22.77
2023-04-10T17:03:59.299Z,26.52
2023-04-10T17:09:00.841Z,25.98
2023-04-10T17:14:02.295Z,18.75
2023-04-10T17:19:03.752Z,26.88
2023-04-10T17:24:05.184Z,27.90
2023-04-10T17:29:06.726Z,27.98
2023-04-10T17:34:08.191Z,29.33
2023-04-10T17:39:09.666Z,27.75
2023-04-10T17:44:11.127Z,30.67
2023-04-10T17:49:12.603Z,32.47
2023-04-10T17:54:14.052Z,34.10
2023-04-10T17:59:15.513Z,31.95
2023-04-10T18:04:17.019Z,32.17
2023-04-10T18:09:18.843Z,32.90
2023-04-10T18:14:20.286Z,37.78
2023-04-10T18:19:21.752Z,41.60
2023-04-10T18:24:23.241Z,46.72
2023-04-10T18:29:24.696Z,44.00
2023-04-10T18:34:26.125Z,120.10
2023-04-10T18:39:27.572Z,274.85
2023-04-10T18:44:29.992Z,180.30
2023-04-10T18:49:32.023Z,176.00
2023-04-10T18:54:33.478Z,60.97
2023-04-10T18:59:34.933Z,63.15
2023-04-10T19:04:36.463Z,51.65
2023-04-10T19:09:38.028Z,55.15
2023-04-10T19:14:39.538Z,46.40
2023-04-10T19:19:40.982Z,60.08
2023-04-10T19:24:42.432Z,57.97
2023-04-10T19:29:43.860Z,43.10
2023-04-10T19:34:45.370Z,45.22
2023-04-10T19:39:46.796Z,42.03
2023-04-10T19:44:48.233Z,37.20
2023-04-10T19:49:49.696Z,47.60
2023-04-10T19:54:51.152Z,42.42
2023-04-10T19:59:52.587Z,40.50
2023-04-10T20:04:54.129Z,35.50
2023-04-10T20:09:55.594Z,44.17
2023-04-10T20:14:57.029Z,43.05
2023-04-10T20:19:58.494Z,44.85
2023-04-10T20:24:59.951Z,51.03
2023-04-10T20:30:01.379Z,39.97
2023-04-10T20:35:02.809Z,52.42
2023-04-10T20:40:04.262Z,53.35
2023-04-10T20:45:05.722Z,49.85
2023-04-10T20:50:07.156Z,57.67
2023-04-10T20:55:08.577Z,54.88
2023-04-10T21:00:10.035Z,56.08
2023-04-10T21:05:11.510Z,51.58
2023-04-10T21:10:12.953Z,56.05
2023-04-10T21:15:14.395Z,58.45
2023-04-10T21:20:15.818Z,46.20
2023-04-10T21:25:17.271Z,63.03
2023-04-10T21:30:18.728Z,65.82
2023-04-10T21:35:20.177Z,68.70
2023-04-10T21:40:21.641Z,59.83
2023-04-10T21:45:23.077Z,64.13
2023-04-10T21:50:24.509Z,65.45
2023-04-10T21:55:25.938Z,64.28
2023-04-10T22:00:27.352Z,75.72
2023-04-10T22:05:28.773Z,67.15
2023-04-10T22:10:30.200Z,70.80
2023-04-10T22:15:31.650Z,68.78
2023-04-10T22:20:33.077Z,75.55
2023-04-10T22:25:38.169Z,70.53
2023-04-10T22:30:40.182Z,70.75
2023-04-10T22:35:41.660Z,66.80
2023-04-10T22:40:43.100Z,68.07
2023-04-10T22:45:44.526Z,77.25
2023-04-10T22:50:45.952Z,72.15
2023-04-10T22:55:47.415Z,75.95
2023-04-10T23:00:48.858Z,66.22
2023-04-10T23:05:50.284Z,78.22
2023-04-10T23:10:51.716Z,81.47
2023-04-10T23:15:53.193Z,76.38
2023-04-10T23:20:54.654Z,82.50
2023-04-10T23:25:56.081Z,80.25
2023-04-10T23:30:57.599Z,82.15
2023-04-10T23:35:59.101Z,76.32
2023-04-10T23:41:00.529Z,78.07
2023-04-10T23:46:01.974Z,75.40
2023-04-10T23:51:03.409Z,79.40
2023-04-10T23:56:04.838Z,83.35
